sensor_id;sensor_type;location;lat;lon;timestamp;pressure;altitude;pressure_sealevel;temperature;humidity
76553;BME280;65395;53.168;18.156;2023-05-20T00:01:29;102281.02;;;11.25;76.20
76553;BME280;65395;53.168;18.156;2023-05-20T00:03:55;102278.42;;;11.25;76.31
76553;BME280;65395;53.168;18.156;2023-05-20T00:06:22;102278.10;;;11.25;76.29
76553;BME280;65395;53.168;18.156;2023-05-20T00:08:49;102275.89;;;11.25;76.28
76553;BME280;65395;53.168;18.156;2023-05-20T00:11:16;102274.88;;;11.26;76.37
76553;BME280;65395;53.168;18.156;2023-05-20T00:13:43;102279.02;;;11.26;76.43
76553;BME280;65395;53.168;18.156;2023-05-20T00:16:10;102274.14;;;11.26;76.45
76553;BME280;65395;53.168;18.156;2023-05-20T00:18:37;102272.88;;;11.26;76.54
76553;BME280;65395;53.168;18.156;2023-05-20T00:21:03;102267.04;;;11.27;76.57
76553;BME280;65395;53.168;18.156;2023-05-20T00:23:30;102265.77;;;11.27;76.58
76553;BME280;65395;53.168;18.156;2023-05-20T00:25:57;102264.88;;;11.27;76.77
76553;BME280;65395;53.168;18.156;2023-05-20T00:28:23;102261.38;;;11.27;76.69
76553;BME280;65395;53.168;18.156;2023-05-20T00:30:50;102261.75;;;11.27;76.74
76553;BME280;65395;53.168;18.156;2023-05-20T00:33:17;102257.53;;;11.26;76.89
76553;BME280;65395;53.168;18.156;2023-05-20T00:35:43;102255.63;;;11.26;77.04
76553;BME280;65395;53.168;18.156;2023-05-20T00:38:10;102257.14;;;11.25;76.96
76553;BME280;65395;53.168;18.156;2023-05-20T00:40:36;102257.77;;;11.24;76.97
76553;BME280;65395;53.168;18.156;2023-05-20T00:43:03;102247.75;;;11.21;76.98
76553;BME280;65395;53.168;18.156;2023-05-20T00:45:30;102254.77;;;11.24;76.94
76553;BME280;65395;53.168;18.156;2023-05-20T00:47:57;102249.84;;;11.24;76.85
76553;BME280;65395;53.168;18.156;2023-05-20T00:50:26;102249.38;;;11.25;76.86
76553;BME280;65395;53.168;18.156;2023-05-20T00:52:54;102249.33;;;11.25;76.93
76553;BME280;65395;53.168;18.156;2023-05-20T00:55:21;102247.86;;;11.25;76.82
76553;BME280;65395;53.168;18.156;2023-05-20T00:57:48;102245.74;;;11.25;76.96
76553;BME280;65395;53.168;18.156;2023-05-20T01:00:15;102248.08;;;11.26;76.78
76553;BME280;65395;53.168;18.156;2023-05-20T01:02:42;102247.50;;;11.27;76.80
76553;BME280;65395;53.168;18.156;2023-05-20T01:05:09;102249.09;;;11.26;76.90
76553;BME280;65395;53.168;18.156;2023-05-20T01:07:35;102245.23;;;11.26;76.95
76553;BME280;65395;53.168;18.156;2023-05-20T01:10:03;102247.05;;;11.26;76.92
76553;BME280;65395;53.168;18.156;2023-05-20T01:12:38;102243.69;;;11.26;76.99
76553;BME280;65395;53.168;18.156;2023-05-20T01:15:10;102240.94;;;11.25;76.94
76553;BME280;65395;53.168;18.156;2023-05-20T01:17:39;102243.89;;;11.26;76.77
76553;BME280;65395;53.168;18.156;2023-05-20T01:20:13;102239.56;;;11.26;76.93
76553;BME280;65395;53.168;18.156;2023-05-20T01:22:52;102241.68;;;11.26;76.96
76553;BME280;65395;53.168;18.156;2023-05-20T01:25:19;102239.41;;;11.25;76.88
76553;BME280;65395;53.168;18.156;2023-05-20T01:27:47;102242.41;;;11.23;77.00
76553;BME280;65395;53.168;18.156;2023-05-20T01:30:15;102242.02;;;11.23;77.00
76553;BME280;65395;53.168;18.156;2023-05-20T01:32:45;102245.13;;;11.22;76.96
76553;BME280;65395;53.168;18.156;2023-05-20T01:35:15;102249.91;;;11.20;77.04
76553;BME280;65395;53.168;18.156;2023-05-20T01:37:42;102249.96;;;11.20;77.05
76553;BME280;65395;53.168;18.156;2023-05-20T01:40:13;102249.08;;;11.20;77.15
76553;BME280;65395;53.168;18.156;2023-05-20T01:42:42;102251.59;;;11.20;77.11
76553;BME280;65395;53.168;18.156;2023-05-20T01:45:09;102244.09;;;11.18;77.17
76553;BME280;65395;53.168;18.156;2023-05-20T01:47:37;102242.08;;;11.18;77.07
76553;BME280;65395;53.168;18.156;2023-05-20T01:50:05;102237.85;;;11.17;77.15
76553;BME280;65395;53.168;18.156;2023-05-20T01:52:32;102236.42;;;11.16;77.12
76553;BME280;65395;53.168;18.156;2023-05-20T01:54:58;102232.02;;;11.16;77.00
76553;BME280;65395;53.168;18.156;2023-05-20T01:57:25;102234.56;;;11.15;77.17
76553;BME280;65395;53.168;18.156;2023-05-20T01:59:52;102235.91;;;11.14;77.23
76553;BME280;65395;53.168;18.156;2023-05-20T02:02:19;102240.12;;;11.12;77.32
76553;BME280;65395;53.168;18.156;2023-05-20T02:04:48;102236.73;;;11.10;77.32
76553;BME280;65395;53.168;18.156;2023-05-20T02:07:16;102237.34;;;11.08;77.32
76553;BME280;65395;53.168;18.156;2023-05-20T02:09:45;102239.12;;;11.07;77.31
76553;BME280;65395;53.168;18.156;2023-05-20T02:12:13;102239.00;;;11.06;77.33
76553;BME280;65395;53.168;18.156;2023-05-20T02:14:44;102240.77;;;11.04;77.37
76553;BME280;65395;53.168;18.156;2023-05-20T02:17:13;102237.09;;;11.04;77.33
76553;BME280;65395;53.168;18.156;2023-05-20T02:19:42;102236.34;;;11.03;77.42
76553;BME280;65395;53.168;18.156;2023-05-20T02:22:10;102235.05;;;11.02;77.43
76553;BME280;65395;53.168;18.156;2023-05-20T02:24:36;102231.20;;;11.01;77.35
76553;BME280;65395;53.168;18.156;2023-05-20T02:27:03;102232.20;;;11.01;77.41
76553;BME280;65395;53.168;18.156;2023-05-20T02:29:33;102232.35;;;11.00;77.37
76553;BME280;65395;53.168;18.156;2023-05-20T02:32:00;102236.58;;;11.00;77.32
76553;BME280;65395;53.168;18.156;2023-05-20T02:34:29;102230.45;;;11.00;77.40
76553;BME280;65395;53.168;18.156;2023-05-20T02:36:56;102230.50;;;11.00;77.31
76553;BME280;65395;53.168;18.156;2023-05-20T02:39:23;102231.29;;;10.99;77.39
76553;BME280;65395;53.168;18.156;2023-05-20T02:41:50;102229.75;;;10.99;77.34
76553;BME280;65395;53.168;18.156;2023-05-20T02:44:17;102231.91;;;10.99;77.41
76553;BME280;65395;53.168;18.156;2023-05-20T02:46:43;102233.64;;;10.98;77.46
76553;BME280;65395;53.168;18.156;2023-05-20T02:49:10;102232.38;;;10.97;77.45
76553;BME280;65395;53.168;18.156;2023-05-20T02:51:37;102226.83;;;10.96;77.44
76553;BME280;65395;53.168;18.156;2023-05-20T02:54:03;102227.35;;;10.96;77.35
76553;BME280;65395;53.168;18.156;2023-05-20T02:56:30;102227.30;;;10.97;77.59
76553;BME280;65395;53.168;18.156;2023-05-20T02:58:57;102232.68;;;10.96;77.44
76553;BME280;65395;53.168;18.156;2023-05-20T03:01:25;102229.02;;;10.95;77.47
76553;BME280;65395;53.168;18.156;2023-05-20T03:03:52;102229.98;;;10.94;77.49
76553;BME280;65395;53.168;18.156;2023-05-20T03:06:19;102229.13;;;10.94;77.46
76553;BME280;65395;53.168;18.156;2023-05-20T03:08:46;102229.81;;;10.94;77.43
76553;BME280;65395;53.168;18.156;2023-05-20T03:11:14;102227.85;;;10.93;77.48
76553;BME280;65395;53.168;18.156;2023-05-20T03:13:41;102233.34;;;10.93;77.40
76553;BME280;65395;53.168;18.156;2023-05-20T03:16:08;102236.20;;;10.93;77.53
76553;BME280;65395;53.168;18.156;2023-05-20T03:18:34;102240.84;;;10.94;77.43
76553;BME280;65395;53.168;18.156;2023-05-20T03:21:01;102239.41;;;10.94;77.42
76553;BME280;65395;53.168;18.156;2023-05-20T03:23:28;102241.10;;;10.94;77.36
76553;BME280;65395;53.168;18.156;2023-05-20T03:25:55;102242.23;;;10.95;77.40
76553;BME280;65395;53.168;18.156;2023-05-20T03:28:21;102238.73;;;10.95;77.27
76553;BME280;65395;53.168;18.156;2023-05-20T03:30:49;102241.64;;;10.96;77.31
76553;BME280;65395;53.168;18.156;2023-05-20T03:33:16;102241.19;;;10.97;77.28
76553;BME280;65395;53.168;18.156;2023-05-20T03:35:43;102241.49;;;10.97;77.22
76553;BME280;65395;53.168;18.156;2023-05-20T03:38:10;102242.02;;;10.98;77.26
76553;BME280;65395;53.168;18.156;2023-05-20T03:40:37;102243.05;;;10.98;77.21
76553;BME280;65395;53.168;18.156;2023-05-20T03:43:04;102245.75;;;11.00;77.29
76553;BME280;65395;53.168;18.156;2023-05-20T03:45:32;102248.20;;;11.01;77.18
76553;BME280;65395;53.168;18.156;2023-05-20T03:48:04;102247.64;;;11.03;77.08
76553;BME280;65395;53.168;18.156;2023-05-20T03:50:32;102245.37;;;11.04;77.06
76553;BME280;65395;53.168;18.156;2023-05-20T03:53:00;102250.98;;;11.05;77.05
76553;BME280;65395;53.168;18.156;2023-05-20T03:55:28;102252.60;;;11.04;76.87
76553;BME280;65395;53.168;18.156;2023-05-20T03:57:55;102249.70;;;11.05;76.80
76553;BME280;65395;53.168;18.156;2023-05-20T04:00:22;102250.25;;;11.07;76.72
76553;BME280;65395;53.168;18.156;2023-05-20T04:02:49;102247.90;;;11.09;76.80
76553;BME280;65395;53.168;18.156;2023-05-20T04:05:17;102250.14;;;11.12;76.62
76553;BME280;65395;53.168;18.156;2023-05-20T04:07:46;102247.48;;;11.14;76.59
76553;BME280;65395;53.168;18.156;2023-05-20T04:10:13;102253.21;;;11.17;76.55
76553;BME280;65395;53.168;18.156;2023-05-20T04:12:39;102254.13;;;11.19;76.49
76553;BME280;65395;53.168;18.156;2023-05-20T04:15:07;102252.54;;;11.23;76.37
76553;BME280;65395;53.168;18.156;2023-05-20T04:17:48;102255.45;;;11.25;76.26
76553;BME280;65395;53.168;18.156;2023-05-20T04:20:16;102253.84;;;11.27;76.16
76553;BME280;65395;53.168;18.156;2023-05-20T04:22:44;102254.86;;;11.29;76.09
76553;BME280;65395;53.168;18.156;2023-05-20T04:25:11;102255.41;;;11.31;76.06
76553;BME280;65395;53.168;18.156;2023-05-20T04:27:39;102255.00;;;11.32;75.97
76553;BME280;65395;53.168;18.156;2023-05-20T04:30:06;102256.90;;;11.32;75.98
76553;BME280;65395;53.168;18.156;2023-05-20T04:32:34;102259.17;;;11.34;75.94
76553;BME280;65395;53.168;18.156;2023-05-20T04:35:01;102262.08;;;11.33;75.89
76553;BME280;65395;53.168;18.156;2023-05-20T04:37:28;102258.44;;;11.34;75.80
76553;BME280;65395;53.168;18.156;2023-05-20T04:39:57;102258.02;;;11.34;75.75
76553;BME280;65395;53.168;18.156;2023-05-20T04:42:24;102253.63;;;11.34;75.62
76553;BME280;65395;53.168;18.156;2023-05-20T04:44:51;102251.16;;;11.34;75.63
76553;BME280;65395;53.168;18.156;2023-05-20T04:47:18;102247.79;;;11.36;75.59
76553;BME280;65395;53.168;18.156;2023-05-20T04:49:44;102249.24;;;11.38;75.60
76553;BME280;65395;53.168;18.156;2023-05-20T04:52:12;102255.35;;;11.43;75.50
76553;BME280;65395;53.168;18.156;2023-05-20T04:54:39;102254.50;;;11.48;75.35
76553;BME280;65395;53.168;18.156;2023-05-20T04:57:06;102259.04;;;11.54;75.22
76553;BME280;65395;53.168;18.156;2023-05-20T04:59:32;102260.08;;;11.59;75.02
76553;BME280;65395;53.168;18.156;2023-05-20T05:01:59;102258.63;;;11.64;74.96
76553;BME280;65395;53.168;18.156;2023-05-20T05:04:26;102259.40;;;11.69;74.79
76553;BME280;65395;53.168;18.156;2023-05-20T05:06:53;102258.33;;;11.74;74.81
76553;BME280;65395;53.168;18.156;2023-05-20T05:09:19;102255.09;;;11.81;74.55
76553;BME280;65395;53.168;18.156;2023-05-20T05:11:46;102257.36;;;11.86;74.46
76553;BME280;65395;53.168;18.156;2023-05-20T05:14:13;102262.52;;;11.92;74.39
76553;BME280;65395;53.168;18.156;2023-05-20T05:16:40;102259.65;;;11.98;74.04
76553;BME280;65395;53.168;18.156;2023-05-20T05:19:07;102258.36;;;12.03;73.99
76553;BME280;65395;53.168;18.156;2023-05-20T05:21:35;102258.82;;;12.09;73.89
76553;BME280;65395;53.168;18.156;2023-05-20T05:24:03;102257.39;;;12.15;73.84
76553;BME280;65395;53.168;18.156;2023-05-20T05:26:30;102257.64;;;12.23;73.67
76553;BME280;65395;53.168;18.156;2023-05-20T05:28:57;102258.36;;;12.29;73.63
76553;BME280;65395;53.168;18.156;2023-05-20T05:31:24;102259.45;;;12.37;73.24
76553;BME280;65395;53.168;18.156;2023-05-20T05:33:51;102260.54;;;12.41;73.20
76553;BME280;65395;53.168;18.156;2023-05-20T05:36:18;102258.23;;;12.46;73.04
76553;BME280;65395;53.168;18.156;2023-05-20T05:38:44;102258.67;;;12.52;72.99
76553;BME280;65395;53.168;18.156;2023-05-20T05:41:11;102254.95;;;12.59;72.93
76553;BME280;65395;53.168;18.156;2023-05-20T05:43:41;102253.77;;;12.67;72.69
76553;BME280;65395;53.168;18.156;2023-05-20T05:46:07;102254.27;;;12.74;72.24
76553;BME280;65395;53.168;18.156;2023-05-20T05:48:35;102255.34;;;12.80;72.29
76553;BME280;65395;53.168;18.156;2023-05-20T05:51:03;102252.77;;;12.87;72.00
76553;BME280;65395;53.168;18.156;2023-05-20T05:53:30;102256.23;;;12.95;71.84
76553;BME280;65395;53.168;18.156;2023-05-20T05:55:56;102256.21;;;13.02;71.62
76553;BME280;65395;53.168;18.156;2023-05-20T05:58:24;102256.29;;;13.12;71.63
76553;BME280;65395;53.168;18.156;2023-05-20T06:00:51;102259.91;;;13.19;71.27
76553;BME280;65395;53.168;18.156;2023-05-20T06:03:18;102266.69;;;13.24;71.24
76553;BME280;65395;53.168;18.156;2023-05-20T06:05:45;102269.50;;;13.29;71.20
76553;BME280;65395;53.168;18.156;2023-05-20T06:08:12;102267.08;;;13.35;71.09
76553;BME280;65395;53.168;18.156;2023-05-20T06:10:39;102268.04;;;13.40;71.02
76553;BME280;65395;53.168;18.156;2023-05-20T06:13:06;102266.39;;;13.48;70.78
76553;BME280;65395;53.168;18.156;2023-05-20T06:15:33;102270.10;;;13.56;70.56
76553;BME280;65395;53.168;18.156;2023-05-20T06:18:02;102273.50;;;13.65;70.20
76553;BME280;65395;53.168;18.156;2023-05-20T06:20:28;102271.44;;;13.73;70.13
76553;BME280;65395;53.168;18.156;2023-05-20T06:22:55;102273.39;;;13.80;69.91
76553;BME280;65395;53.168;18.156;2023-05-20T06:25:24;102271.48;;;13.86;69.61
76553;BME280;65395;53.168;18.156;2023-05-20T06:27:51;102271.73;;;13.92;69.61
76553;BME280;65395;53.168;18.156;2023-05-20T06:30:19;102272.67;;;13.98;69.36
76553;BME280;65395;53.168;18.156;2023-05-20T06:32:47;102272.14;;;14.04;69.19
76553;BME280;65395;53.168;18.156;2023-05-20T06:35:13;102270.38;;;14.09;69.09
76553;BME280;65395;53.168;18.156;2023-05-20T06:37:40;102264.96;;;14.14;68.98
76553;BME280;65395;53.168;18.156;2023-05-20T06:40:08;102263.84;;;14.18;68.88
76553;BME280;65395;53.168;18.156;2023-05-20T06:42:35;102262.27;;;14.22;68.59
76553;BME280;65395;53.168;18.156;2023-05-20T06:45:03;102261.42;;;14.27;68.44
76553;BME280;65395;53.168;18.156;2023-05-20T06:47:36;102264.23;;;14.33;68.45
76553;BME280;65395;53.168;18.156;2023-05-20T06:50:03;102266.30;;;14.39;68.37
76553;BME280;65395;53.168;18.156;2023-05-20T06:52:30;102263.92;;;14.47;68.10
76553;BME280;65395;53.168;18.156;2023-05-20T06:54:57;102265.59;;;14.53;67.91
76553;BME280;65395;53.168;18.156;2023-05-20T06:57:24;102263.72;;;14.58;67.65
76553;BME280;65395;53.168;18.156;2023-05-20T06:59:51;102265.26;;;14.60;67.44
76553;BME280;65395;53.168;18.156;2023-05-20T07:02:19;102265.19;;;14.62;67.45
76553;BME280;65395;53.168;18.156;2023-05-20T07:04:47;102264.74;;;14.68;67.18
76553;BME280;65395;53.168;18.156;2023-05-20T07:07:14;102262.44;;;14.74;67.13
76553;BME280;65395;53.168;18.156;2023-05-20T07:09:42;102262.34;;;14.79;66.94
76553;BME280;65395;53.168;18.156;2023-05-20T07:12:09;102262.11;;;14.83;66.92
76553;BME280;65395;53.168;18.156;2023-05-20T07:14:36;102255.67;;;14.87;66.48
76553;BME280;65395;53.168;18.156;2023-05-20T07:17:04;102252.62;;;14.90;66.21
76553;BME280;65395;53.168;18.156;2023-05-20T07:19:31;102254.67;;;14.94;66.23
76553;BME280;65395;53.168;18.156;2023-05-20T07:21:59;102251.77;;;15.02;66.23
76553;BME280;65395;53.168;18.156;2023-05-20T07:24:37;102255.30;;;15.13;65.81
76553;BME280;65395;53.168;18.156;2023-05-20T07:27:04;102251.96;;;15.26;65.39
76553;BME280;65395;53.168;18.156;2023-05-20T07:29:31;102251.45;;;15.38;65.13
76553;BME280;65395;53.168;18.156;2023-05-20T07:31:58;102249.67;;;15.51;64.85
76553;BME280;65395;53.168;18.156;2023-05-20T07:34:24;102248.96;;;15.65;64.78
76553;BME280;65395;53.168;18.156;2023-05-20T07:36:51;102250.61;;;15.77;63.43
76553;BME280;65395;53.168;18.156;2023-05-20T07:39:19;102246.21;;;15.80;63.43
76553;BME280;65395;53.168;18.156;2023-05-20T07:41:46;102243.52;;;15.85;63.47
76553;BME280;65395;53.168;18.156;2023-05-20T07:44:13;102239.17;;;15.98;63.65
76553;BME280;65395;53.168;18.156;2023-05-20T07:46:43;102237.26;;;16.18;63.26
76553;BME280;65395;53.168;18.156;2023-05-20T07:49:10;102238.30;;;16.25;62.69
76553;BME280;65395;53.168;18.156;2023-05-20T07:51:38;102242.98;;;16.31;62.67
76553;BME280;65395;53.168;18.156;2023-05-20T07:54:05;102240.53;;;16.42;62.96
76553;BME280;65395;53.168;18.156;2023-05-20T07:56:32;102238.92;;;16.59;62.48
76553;BME280;65395;53.168;18.156;2023-05-20T07:58:59;102239.91;;;16.77;62.50
76553;BME280;65395;53.168;18.156;2023-05-20T08:01:32;102240.27;;;16.99;61.94
76553;BME280;65395;53.168;18.156;2023-05-20T08:04:00;102239.35;;;17.15;61.55
76553;BME280;65395;53.168;18.156;2023-05-20T08:06:27;102234.46;;;17.31;61.34
76553;BME280;65395;53.168;18.156;2023-05-20T08:08:53;102238.31;;;17.45;61.06
76553;BME280;65395;53.168;18.156;2023-05-20T08:11:24;102234.59;;;17.64;60.91
76553;BME280;65395;53.168;18.156;2023-05-20T08:13:51;102234.91;;;17.76;60.07
76553;BME280;65395;53.168;18.156;2023-05-20T08:16:20;102230.17;;;17.74;59.92
76553;BME280;65395;53.168;18.156;2023-05-20T08:18:47;102231.35;;;17.75;59.99
76553;BME280;65395;53.168;18.156;2023-05-20T08:21:13;102228.50;;;17.78;59.75
76553;BME280;65395;53.168;18.156;2023-05-20T08:23:41;102225.36;;;17.83;59.81
76553;BME280;65395;53.168;18.156;2023-05-20T08:26:07;102223.39;;;17.86;59.65
76553;BME280;65395;53.168;18.156;2023-05-20T08:28:36;102224.86;;;17.90;59.24
76553;BME280;65395;53.168;18.156;2023-05-20T08:31:04;102221.09;;;17.98;58.95
76553;BME280;65395;53.168;18.156;2023-05-20T08:33:31;102217.96;;;18.02;58.85
76553;BME280;65395;53.168;18.156;2023-05-20T08:35:58;102219.77;;;18.03;58.53
76553;BME280;65395;53.168;18.156;2023-05-20T08:38:25;102215.58;;;18.10;58.00
76553;BME280;65395;53.168;18.156;2023-05-20T08:40:54;102217.18;;;18.25;58.01
76553;BME280;65395;53.168;18.156;2023-05-20T08:43:23;102213.94;;;18.49;57.65
76553;BME280;65395;53.168;18.156;2023-05-20T08:45:50;102215.36;;;18.72;57.04
76553;BME280;65395;53.168;18.156;2023-05-20T08:48:18;102211.36;;;18.90;56.01
76553;BME280;65395;53.168;18.156;2023-05-20T08:50:50;102210.80;;;19.03;55.95
76553;BME280;65395;53.168;18.156;2023-05-20T08:53:19;102206.09;;;19.10;55.00
76553;BME280;65395;53.168;18.156;2023-05-20T08:55:56;102204.38;;;19.08;55.09
76553;BME280;65395;53.168;18.156;2023-05-20T08:58:25;102201.05;;;19.06;55.41
76553;BME280;65395;53.168;18.156;2023-05-20T09:00:53;102195.03;;;19.05;55.62
76553;BME280;65395;53.168;18.156;2023-05-20T09:03:20;102195.60;;;18.97;54.94
76553;BME280;65395;53.168;18.156;2023-05-20T09:05:48;102191.43;;;18.83;54.82
76553;BME280;65395;53.168;18.156;2023-05-20T09:08:15;102190.96;;;18.71;55.43
76553;BME280;65395;53.168;18.156;2023-05-20T09:10:42;102188.14;;;18.59;54.59
76553;BME280;65395;53.168;18.156;2023-05-20T09:13:09;102193.60;;;18.40;54.94
76553;BME280;65395;53.168;18.156;2023-05-20T09:15:36;102187.94;;;18.22;55.24
76553;BME280;65395;53.168;18.156;2023-05-20T09:18:06;102188.04;;;18.12;55.70
76553;BME280;65395;53.168;18.156;2023-05-20T09:20:36;102187.77;;;18.07;55.48
76553;BME280;65395;53.168;18.156;2023-05-20T09:23:05;102184.40;;;17.99;55.29
76553;BME280;65395;53.168;18.156;2023-05-20T09:25:32;102183.48;;;17.89;55.30
76553;BME280;65395;53.168;18.156;2023-05-20T09:27:59;102176.70;;;17.84;55.65
76553;BME280;65395;53.168;18.156;2023-05-20T09:30:26;102175.21;;;17.81;55.10
76553;BME280;65395;53.168;18.156;2023-05-20T09:32:54;102175.80;;;17.79;55.64
76553;BME280;65395;53.168;18.156;2023-05-20T09:35:22;102174.60;;;17.82;55.34
76553;BME280;65395;53.168;18.156;2023-05-20T09:37:55;102172.55;;;17.86;55.05
76553;BME280;65395;53.168;18.156;2023-05-20T09:40:25;102173.61;;;17.92;55.44
76553;BME280;65395;53.168;18.156;2023-05-20T09:42:55;102169.30;;;18.01;54.79
76553;BME280;65395;53.168;18.156;2023-05-20T09:45:22;102165.45;;;18.05;54.74
76553;BME280;65395;53.168;18.156;2023-05-20T09:47:50;102164.52;;;18.10;54.90
76553;BME280;65395;53.168;18.156;2023-05-20T09:50:19;102165.58;;;18.14;54.27
76553;BME280;65395;53.168;18.156;2023-05-20T09:52:48;102168.81;;;18.17;54.11
76553;BME280;65395;53.168;18.156;2023-05-20T09:55:17;102166.52;;;18.20;54.43
76553;BME280;65395;53.168;18.156;2023-05-20T09:57:45;102167.23;;;18.26;54.41
76553;BME280;65395;53.168;18.156;2023-05-20T10:00:12;102168.14;;;18.35;54.27
76553;BME280;65395;53.168;18.156;2023-05-20T10:02:44;102169.86;;;18.39;53.95
76553;BME280;65395;53.168;18.156;2023-05-20T10:05:17;102169.61;;;18.36;53.97
76553;BME280;65395;53.168;18.156;2023-05-20T10:13:42;102166.23;;;18.41;53.79
76553;BME280;65395;53.168;18.156;2023-05-20T10:16:28;102165.83;;;18.35;54.28
76553;BME280;65395;53.168;18.156;2023-05-20T10:19:32;102168.09;;;18.39;53.91
76553;BME280;65395;53.168;18.156;2023-05-20T10:22:06;102159.41;;;18.53;53.94
76553;BME280;65395;53.168;18.156;2023-05-20T10:24:36;102158.11;;;18.78;54.00
76553;BME280;65395;53.168;18.156;2023-05-20T10:27:07;102155.04;;;19.01;53.68
76553;BME280;65395;53.168;18.156;2023-05-20T10:29:48;102151.06;;;19.21;52.79
76553;BME280;65395;53.168;18.156;2023-05-20T10:32:26;102145.08;;;19.38;52.34
76553;BME280;65395;53.168;18.156;2023-05-20T10:34:58;102144.19;;;19.48;52.20
76553;BME280;65395;53.168;18.156;2023-05-20T10:37:28;102141.00;;;19.55;52.68
76553;BME280;65395;53.168;18.156;2023-05-20T10:40:09;102138.64;;;19.61;52.88
76553;BME280;65395;53.168;18.156;2023-05-20T10:42:37;102138.30;;;19.62;52.74
76553;BME280;65395;53.168;18.156;2023-05-20T10:45:05;102138.11;;;19.61;52.45
76553;BME280;65395;53.168;18.156;2023-05-20T10:47:32;102132.96;;;19.65;52.58
76553;BME280;65395;53.168;18.156;2023-05-20T10:49:59;102131.15;;;19.83;52.53
76553;BME280;65395;53.168;18.156;2023-05-20T10:52:35;102130.88;;;20.02;52.13
76553;BME280;65395;53.168;18.156;2023-05-20T10:55:03;102134.58;;;20.20;52.15
76553;BME280;65395;53.168;18.156;2023-05-20T10:57:30;102135.59;;;20.41;51.72
76553;BME280;65395;53.168;18.156;2023-05-20T10:59:58;102136.62;;;20.69;51.69
76553;BME280;65395;53.168;18.156;2023-05-20T11:02:26;102134.70;;;21.02;51.23
76553;BME280;65395;53.168;18.156;2023-05-20T11:04:55;102134.71;;;21.37;50.85
76553;BME280;65395;53.168;18.156;2023-05-20T11:07:26;102132.55;;;21.55;50.17
76553;BME280;65395;53.168;18.156;2023-05-20T11:09:55;102129.48;;;21.59;49.64
76553;BME280;65395;53.168;18.156;2023-05-20T11:12:24;102130.20;;;21.54;49.02
76553;BME280;65395;53.168;18.156;2023-05-20T11:14:51;102127.48;;;21.47;49.36
76553;BME280;65395;53.168;18.156;2023-05-20T11:17:18;102125.33;;;21.49;49.62
76553;BME280;65395;53.168;18.156;2023-05-20T11:19:46;102118.75;;;21.57;49.58
76553;BME280;65395;53.168;18.156;2023-05-20T11:22:13;102121.73;;;21.66;49.49
76553;BME280;65395;53.168;18.156;2023-05-20T11:24:40;102117.86;;;21.77;49.43
76553;BME280;65395;53.168;18.156;2023-05-20T11:27:07;102120.98;;;21.95;49.01
76553;BME280;65395;53.168;18.156;2023-05-20T11:29:34;102123.77;;;22.18;48.85
76553;BME280;65395;53.168;18.156;2023-05-20T11:32:01;102128.09;;;22.33;48.14
76553;BME280;65395;53.168;18.156;2023-05-20T11:34:33;102128.46;;;22.39;48.32
76553;BME280;65395;53.168;18.156;2023-05-20T11:37:00;102125.79;;;22.40;47.51
76553;BME280;65395;53.168;18.156;2023-05-20T11:39:29;102121.21;;;22.34;47.85
76553;BME280;65395;53.168;18.156;2023-05-20T11:41:56;102118.68;;;22.38;47.86
76553;BME280;65395;53.168;18.156;2023-05-20T11:44:24;102116.04;;;22.50;47.84
76553;BME280;65395;53.168;18.156;2023-05-20T11:46:58;102111.09;;;22.79;47.38
76553;BME280;65395;53.168;18.156;2023-05-20T11:49:25;102111.63;;;23.03;46.81
76553;BME280;65395;53.168;18.156;2023-05-20T11:51:52;102112.18;;;23.10;46.39
76553;BME280;65395;53.168;18.156;2023-05-20T11:54:21;102114.89;;;23.00;47.01
76553;BME280;65395;53.168;18.156;2023-05-20T11:56:48;102119.27;;;22.99;47.09
76553;BME280;65395;53.168;18.156;2023-05-20T11:59:16;102115.77;;;23.01;46.86
76553;BME280;65395;53.168;18.156;2023-05-20T12:01:42;102110.91;;;23.18;46.32
76553;BME280;65395;53.168;18.156;2023-05-20T12:04:10;102111.02;;;23.44;45.92
76553;BME280;65395;53.168;18.156;2023-05-20T12:06:38;102107.62;;;23.59;45.34
76553;BME280;65395;53.168;18.156;2023-05-20T12:09:06;102106.98;;;23.72;45.49
76553;BME280;65395;53.168;18.156;2023-05-20T12:11:34;102107.34;;;23.87;44.93
76553;BME280;65395;53.168;18.156;2023-05-20T12:14:02;102105.81;;;23.82;44.84
76553;BME280;65395;53.168;18.156;2023-05-20T12:16:30;102103.80;;;23.77;45.09
76553;BME280;65395;53.168;18.156;2023-05-20T12:18:58;102100.88;;;23.74;44.91
76553;BME280;65395;53.168;18.156;2023-05-20T12:21:27;102099.73;;;23.79;44.73
76553;BME280;65395;53.168;18.156;2023-05-20T12:23:54;102098.52;;;24.00;44.74
76553;BME280;65395;53.168;18.156;2023-05-20T12:26:25;102094.54;;;24.18;44.44
76553;BME280;65395;53.168;18.156;2023-05-20T12:28:53;102092.12;;;24.56;44.00
76553;BME280;65395;53.168;18.156;2023-05-20T12:31:20;102092.15;;;25.00;43.34
76553;BME280;65395;53.168;18.156;2023-05-20T12:33:46;102091.90;;;25.36;42.82
76553;BME280;65395;53.168;18.156;2023-05-20T12:36:13;102094.15;;;25.49;41.68
76553;BME280;65395;53.168;18.156;2023-05-20T12:38:40;102090.89;;;25.33;42.25
76553;BME280;65395;53.168;18.156;2023-05-20T12:41:07;102084.52;;;25.40;41.72
76553;BME280;65395;53.168;18.156;2023-05-20T12:43:34;102083.32;;;25.33;41.38
76553;BME280;65395;53.168;18.156;2023-05-20T12:46:02;102074.45;;;25.30;41.81
76553;BME280;65395;53.168;18.156;2023-05-20T12:48:29;102068.14;;;25.39;41.86
76553;BME280;65395;53.168;18.156;2023-05-20T12:50:56;102072.70;;;25.52;41.05